KSMX/SMX METAR and TAF weather

Enter ICAO airport designator
Station Type Date Time Source
KSMX METAR 2020/04/07 05:51 UTC NOAA

KSMX 070551Z AUTO 00000KT 10SM FEW075 08/06 A3004 RMK AO2 SLP175 T00830056 10144 20078 51022


Station Type Date Time Source
KSMX Decoded METAR 2020/04/07 05:51 UTC NOAA

SANTA MARIA PUBLIC AIRPORT, CA, United States (KSMX) 34-54N 120-28W 74M
Apr 07, 2020 - 01:51 AM EDT / 2020.04.07 0551 UTC
Wind: Calm:0
Visibility: 10 mile(s):0
Sky conditions: mostly clear
Temperature: 46.9 F (8.3 C)
Dew Point: 42.1 F (5.6 C)
Relative Humidity: 83%
Pressure (altimeter): 30.04 in. Hg (1017 hPa)
Pressure tendency: 0.06 inches (2.2 hPa) higher than three hours ago
ob: KSMX 070551Z AUTO 00000KT 10SM FEW075 08/06 A3004 RMK AO2 SLP175 T00830056 10144 20078 51022
cycle: 6

Station Type Date Time Source
KSMX TAF 2020/04/07 06:42 UTC NOAA

TAF KSMX 070540Z 0706/0806 VRB03KT P6SM SCT050
FM071200 VRB03KT P6SM BKN040
FM071900 31008KT P6SM -SHRA BKN035
FM080300 VRB03KT P6SM VCSH BKN040

Example: see airport list